Share

Cove, AR

8:34 AM CDT on April 23, 2014 (GMT -0500)
Mena (KMEZ) Elev 1079 ft | 34.55 °N, 94.20 °W | Change Station

Current weather conditions updated 19 minutes ago

Clear
Clear
54 °F
Feels Like 54 °F
N
0
Wind Variable Wind from North
Sunrise 6:36 AM
Sunset 7:55 PM
Moon Last Quarter

Today is forecast to be nearly the same temperature as yesterday.

Pressure 30.02 in
Visibility 10.0 miles
Clouds Clear
Dew Point 54 °F
Humidity 100%
Rainfall 0.00 in
Snow Depth Not available.
UV 1 out of 16
Pollen 9.30 out of 12
Air Quality Not available.
Flu Activity Sporadic
METAR KMEZ 231315Z AUTO 00000KT 10SM CLR 12/12 A3002 RMK AO2 PWINO

More Conditions Fewer Conditions

Pressure 30.02 in
Visibility 10.0 miles
Clouds Clear
Dew Point 54 °F
Humidity 100%
Rainfall 0.00 in
Snow Depth Not available.
UV 1 out of 16
Pollen 9.30 out of 12
Air Quality Not available.
Flu Activity Sporadic
METAR KMEZ 231315Z AUTO 00000KT 10SM CLR 12/12 A3002 RMK AO2 PWINO

More Conditions Fewer Conditions

10-Day Weather Forecast

Almanac

Astronomy

Apr. 23, 2014 Rise Set
Actual Time 6:36 AM CDT 7:55 PM CDT
Civil Twilight 6:10 AM CDT 8:22 PM CDT
Nautical Twilight 5:38 AM CDT 8:53 PM CDT
Astronomical Twilight 5:06 AM CDT 9:26 PM CDT
Moon 2:53 AM CDT 2:19 PM CDT
Length of Visible Light 14h 11m
Length of Day
13h 19m
Tomorrow will be 1m 57s longer.
Last Quarter, 36% of the Moon is Illuminated
Today
Last Quarter
Apr 29
New
May 6
First Quarter
May 14
Full
May 21
Last Quarter

Today's Extremes

State Highs State Lows

Community

  • spring flowers
    spring flowers
  • Earth Day Spectrum Ove' Blue
    Earth Day Spectrum Ove' Blue
  • April Sunset
    April Sunset
  • Waiting..
    Waiting..
  • Sunset...
    Sunset...

WunderPhotos

Upload Photos

1,704,277 photos uploaded!

Nearby

Snow Depth

Station Depth Elevation
No new snow has been reported.

Coastal Water Temperatures

Place Temperature
No Stations Reporting

Earthquake Activity

City Distance Mag. Time & Date
No recent earthquake activity has been reported nearby.
Minimum magnitude displayed is 2.5.

Nearby Weather Stations

There are no personal weather stations in this area.

What do you think?

We're not finished. Please let us know what you like, what you don't like, and what you are still missing.